createdAt,value
2022-08-11T00:00:36.823Z,2.47
2022-08-11T00:03:09.177Z,2.57
2022-08-11T00:05:49.839Z,2.90
2022-08-11T00:08:25.414Z,2.10
2022-08-11T00:10:55.398Z,2.93
2022-08-11T00:13:23.646Z,3.80
2022-08-11T00:15:50.689Z,2.40
2022-08-11T00:18:17.578Z,2.63
2022-08-11T00:20:44.742Z,2.57
2022-08-11T00:23:19.907Z,2.50
2022-08-11T00:25:50.005Z,2.57
2022-08-11T00:28:27.427Z,2.93
2022-08-11T00:30:55.918Z,2.57
2022-08-11T00:33:41.074Z,2.00
2022-08-11T00:36:13.167Z,3.03
2022-08-11T00:38:41.458Z,2.43
2022-08-11T00:41:31.825Z,3.00
2022-08-11T00:44:30.589Z,1.90
2022-08-11T00:47:22.772Z,2.30
2022-08-11T00:50:14.739Z,2.90
2022-08-11T00:53:07.545Z,2.50
2022-08-11T00:55:55.982Z,2.60
2022-08-11T00:58:51.259Z,2.63
2022-08-11T01:01:17.944Z,2.53
2022-08-11T01:03:47.404Z,2.90
2022-08-11T01:06:59.337Z,2.37
2022-08-11T01:09:52.172Z,2.60
2022-08-11T01:12:43.417Z,3.03
2022-08-11T01:15:43.310Z,2.80
2022-08-11T01:18:53.669Z,2.93
2022-08-11T01:21:55.664Z,3.20
2022-08-11T01:24:47.821Z,2.90
2022-08-11T01:27:20.112Z,2.50
2022-08-11T01:30:39.307Z,3.10
2022-08-11T01:33:43.487Z,2.27
2022-08-11T01:36:12.827Z,3.60
2022-08-11T01:39:19.453Z,2.80
2022-08-11T01:42:39.846Z,3.37
2022-08-11T01:45:22.549Z,2.80
2022-08-11T01:48:05.272Z,3.07
2022-08-11T01:50:59.907Z,3.30
2022-08-11T01:53:29.412Z,3.13
2022-08-11T01:56:35.471Z,3.20
2022-08-11T01:59:35.758Z,3.30
2022-08-11T02:02:21.672Z,3.37
2022-08-11T02:05:09.657Z,2.50
2022-08-11T02:07:50.264Z,3.03
2022-08-11T02:10:50.309Z,3.10
2022-08-11T02:13:37.210Z,2.50
2022-08-11T02:16:42.517Z,2.83
2022-08-11T02:19:41.299Z,3.30
2022-08-11T02:22:48.854Z,3.00
2022-08-11T02:25:27.580Z,2.80
2022-08-11T02:28:11.174Z,3.10
2022-08-11T02:30:42.804Z,2.93
2022-08-11T02:33:24.935Z,3.10
2022-08-11T02:36:12.098Z,2.57
2022-08-11T02:38:54.245Z,3.27
2022-08-11T02:42:32.782Z,2.77
2022-08-11T02:45:12.122Z,4.07
2022-08-11T02:48:24.149Z,2.50
2022-08-11T02:51:02.372Z,2.40
2022-08-11T02:53:39.653Z,3.27
2022-08-11T02:56:38.235Z,2.83
2022-08-11T02:59:35.668Z,2.70
2022-08-11T03:02:15.270Z,3.40
2022-08-11T03:05:04.926Z,2.93
2022-08-11T03:07:40.677Z,3.33
2022-08-11T03:10:30.772Z,2.77
2022-08-11T03:13:37.659Z,3.00
2022-08-11T03:16:48.478Z,2.27
2022-08-11T03:19:27.165Z,3.33
2022-08-11T03:22:22.787Z,3.80
2022-08-11T03:24:59.038Z,3.40
2022-08-11T03:27:37.565Z,3.00
2022-08-11T03:30:15.453Z,4.03
2022-08-11T03:33:08.819Z,2.70
2022-08-11T03:35:45.572Z,2.83
2022-08-11T03:38:16.383Z,4.00
2022-08-11T03:42:01.755Z,3.80
2022-08-11T03:44:21.570Z,3.13
2022-08-11T03:47:06.956Z,3.00
2022-08-11T03:50:07.708Z,3.37
2022-08-11T03:52:58.624Z,3.40
2022-08-11T03:55:40.628Z,3.37
2022-08-11T03:58:46.630Z,3.00
2022-08-11T04:01:34.962Z,3.50
2022-08-11T04:04:21.277Z,2.60
2022-08-11T04:06:59.970Z,2.90
2022-08-11T04:09:46.489Z,3.60
2022-08-11T04:12:36.622Z,3.53
2022-08-11T04:16:12.036Z,3.23
2022-08-11T04:18:51.809Z,3.40
2022-08-11T04:21:56.312Z,3.10
2022-08-11T04:24:41.091Z,3.67
2022-08-11T04:27:58.354Z,2.90
2022-08-11T04:30:28.953Z,2.93
2022-08-11T04:32:59.982Z,3.53
2022-08-11T04:35:54.771Z,2.90
2022-08-11T04:39:10.892Z,2.60
2022-08-11T04:42:19.502Z,3.67
2022-08-11T04:45:11.022Z,3.17
2022-08-11T04:48:04.319Z,5.17
2022-08-11T04:51:17.080Z,3.63
2022-08-11T04:54:33.327Z,4.37
2022-08-11T04:57:25.323Z,3.53
2022-08-11T05:00:29.556Z,3.20
2022-08-11T05:03:15.031Z,3.67
2022-08-11T05:06:06.423Z,2.60
2022-08-11T05:08:33.042Z,3.43
2022-08-11T05:11:29.319Z,2.97
2022-08-11T05:14:33.032Z,3.47
2022-08-11T05:17:23.200Z,3.53
2022-08-11T05:20:08.312Z,3.40
2022-08-11T05:22:53.811Z,3.30
2022-08-11T05:26:44.884Z,2.80
2022-08-11T05:29:19.776Z,3.57
2022-08-11T05:32:10.161Z,2.97
2022-08-11T05:34:54.293Z,3.30
2022-08-11T05:37:30.475Z,3.03
2022-08-11T05:40:24.900Z,2.93
2022-08-11T05:43:16.622Z,2.27
2022-08-11T05:46:04.576Z,3.10
2022-08-11T05:48:55.185Z,2.57
2022-08-11T05:51:54.641Z,3.50
2022-08-11T05:54:42.117Z,4.10
2022-08-11T05:57:09.653Z,4.43
2022-08-11T05:59:36.650Z,4.40
2022-08-11T06:02:06.375Z,3.37
2022-08-11T06:04:33.861Z,5.30
2022-08-11T06:07:09.681Z,4.87
2022-08-11T06:09:47.940Z,3.70
2022-08-11T06:12:22.423Z,4.10
2022-08-11T06:14:54.204Z,4.80
2022-08-11T06:17:27.259Z,5.60
2022-08-11T06:20:11.940Z,3.80
2022-08-11T06:22:49.718Z,4.50
2022-08-11T06:25:19.807Z,4.53
2022-08-11T06:27:47.417Z,4.47
2022-08-11T06:30:14.361Z,4.27
2022-08-11T06:32:45.789Z,4.83
2022-08-11T06:35:12.562Z,4.50
2022-08-11T06:37:58.859Z,3.80
2022-08-11T06:40:44.964Z,4.00
2022-08-11T06:43:23.632Z,4.80
2022-08-11T06:46:03.444Z,4.33
2022-08-11T06:48:32.273Z,3.70
2022-08-11T06:51:14.719Z,3.83
2022-08-11T06:54:03.401Z,3.47
2022-08-11T06:57:28.916Z,4.13
2022-08-11T07:00:06.872Z,4.23
2022-08-11T07:02:49.742Z,4.27
2022-08-11T07:05:45.822Z,4.80
2022-08-11T07:08:36.584Z,4.23
2022-08-11T07:11:43.587Z,3.40
2022-08-11T07:14:49.721Z,5.10
2022-08-11T07:17:20.362Z,4.30
2022-08-11T07:20:16.519Z,3.40
2022-08-11T07:23:08.310Z,4.37
2022-08-11T07:25:58.502Z,4.70
2022-08-11T07:28:45.882Z,5.20
2022-08-11T07:31:16.139Z,4.10
2022-08-11T07:34:05.902Z,4.20
2022-08-11T07:36:40.632Z,4.10
2022-08-11T07:39:11.567Z,3.50
2022-08-11T07:41:39.267Z,4.17
2022-08-11T07:44:09.967Z,4.10
2022-08-11T07:47:00.769Z,3.80
2022-08-11T07:49:48.541Z,3.87
2022-08-11T07:52:30.989Z,4.40
2022-08-11T07:55:06.431Z,3.37
2022-08-11T07:58:15.974Z,3.30
2022-08-11T08:01:10.492Z,3.00
2022-08-11T08:04:02.564Z,3.57
2022-08-11T08:06:48.813Z,3.50
2022-08-11T08:09:36.226Z,3.67
2022-08-11T08:12:23.021Z,3.30
2022-08-11T08:15:10.259Z,3.40
2022-08-11T08:18:09.669Z,3.27
2022-08-11T08:20:39.721Z,3.47
2022-08-11T08:23:07.493Z,3.20
2022-08-11T08:25:35.832Z,4.47
2022-08-11T08:28:06.601Z,3.10
2022-08-11T08:30:51.010Z,3.07
2022-08-11T08:33:23.774Z,3.90
2022-08-11T08:36:14.402Z,3.53
2022-08-11T08:39:01.322Z,3.13
2022-08-11T08:41:31.302Z,2.83
2022-08-11T08:44:37.951Z,2.77
2022-08-11T08:46:58.582Z,3.13
2022-08-11T08:49:40.356Z,3.07
2022-08-11T08:52:29.571Z,2.53
2022-08-11T08:54:58.571Z,2.90
2022-08-11T08:57:28.466Z,3.10
2022-08-11T08:59:55.620Z,2.97
2022-08-11T09:02:34.767Z,2.50
2022-08-11T09:05:03.970Z,2.90
2022-08-11T09:07:38.855Z,2.67
2022-08-11T09:10:11.076Z,3.00
2022-08-11T09:12:39.958Z,2.50
2022-08-11T09:15:09.348Z,2.33
2022-08-11T09:17:41.025Z,2.30
2022-08-11T09:20:24.870Z,2.10
2022-08-11T09:24:08.874Z,2.07
2022-08-11T09:26:20.705Z,1.97
2022-08-11T09:28:49.850Z,2.53
2022-08-11T09:31:17.189Z,2.70
2022-08-11T09:33:45.022Z,2.73
2022-08-11T09:36:32.276Z,2.33
2022-08-11T09:39:19.102Z,2.17
2022-08-11T09:42:00.302Z,2.13
2022-08-11T09:44:50.033Z,2.20
2022-08-11T09:47:30.345Z,2.50
2022-08-11T09:50:02.711Z,2.37
2022-08-11T09:52:32.961Z,1.80
2022-08-11T09:55:00.302Z,2.00
2022-08-11T09:57:45.512Z,2.20
2022-08-11T10:00:14.324Z,1.80
2022-08-11T10:02:48.863Z,1.77
2022-08-11T10:05:36.493Z,2.20
2022-08-11T10:08:04.789Z,2.57
2022-08-11T10:10:36.101Z,2.53
2022-08-11T10:14:30.650Z,1.80
2022-08-11T10:15:59.891Z,1.93
2022-08-11T10:18:42.392Z,1.80
2022-08-11T10:21:36.301Z,2.50
2022-08-11T10:24:22.742Z,2.00
2022-08-11T10:26:54.650Z,1.90
2022-08-11T10:29:44.543Z,2.37
2022-08-11T10:32:54.310Z,1.70
2022-08-11T10:35:30.331Z,1.37
2022-08-11T10:38:07.890Z,1.90
2022-08-11T10:41:07.319Z,1.30
2022-08-11T10:44:02.107Z,1.60
2022-08-11T10:46:42.656Z,1.80
2022-08-11T10:49:10.133Z,1.40
2022-08-11T10:51:58.802Z,1.60
2022-08-11T10:54:44.741Z,1.50
2022-08-11T10:57:31.340Z,1.83
2022-08-11T10:59:59.085Z,1.80
2022-08-11T11:02:27.493Z,1.90
2022-08-11T11:05:01.491Z,1.97
2022-08-11T11:08:30.750Z,2.00
2022-08-11T11:10:58.199Z,1.50
2022-08-11T11:13:55.061Z,1.83
2022-08-11T11:16:42.329Z,2.30
2022-08-11T11:19:11.100Z,1.90
2022-08-11T11:21:39.139Z,1.80
2022-08-11T11:24:21.871Z,1.90
2022-08-11T11:27:17.809Z,1.40
2022-08-11T11:30:08.781Z,2.10
2022-08-11T11:32:35.572Z,2.80
2022-08-11T11:35:17.761Z,1.50
2022-08-11T11:37:56.084Z,1.80
2022-08-11T11:40:32.296Z,1.30
2022-08-11T11:42:59.837Z,1.97
2022-08-11T11:45:26.814Z,1.47
2022-08-11T11:47:55.681Z,1.07
2022-08-11T11:50:36.561Z,1.00
2022-08-11T11:53:06.180Z,1.60
2022-08-11T11:55:33.424Z,1.53
2022-08-11T11:58:22.001Z,1.40
2022-08-11T12:01:08.340Z,1.30
2022-08-11T12:03:36.165Z,1.40
2022-08-11T12:06:03.603Z,1.37
2022-08-11T12:08:30.762Z,1.27
2022-08-11T12:11:20.951Z,1.20
2022-08-11T12:13:50.605Z,1.23
2022-08-11T12:16:32.907Z,1.30
2022-08-11T12:19:05.820Z,1.40
2022-08-11T12:21:32.919Z,1.53
2022-08-11T12:24:20.350Z,1.50
2022-08-11T12:27:16.049Z,1.57
2022-08-11T12:29:54.502Z,1.53
2022-08-11T12:32:24.654Z,2.00
2022-08-11T12:34:51.691Z,1.60
2022-08-11T12:37:23.786Z,1.63
2022-08-11T12:40:49.542Z,1.53
2022-08-11T12:43:24.174Z,1.83
2022-08-11T12:46:09.407Z,2.00
2022-08-11T12:48:58.564Z,1.60
2022-08-11T12:52:06.743Z,1.53
2022-08-11T12:55:00.133Z,1.40
2022-08-11T12:57:49.767Z,1.60
2022-08-11T13:00:36.254Z,1.67
2022-08-11T13:03:22.444Z,1.77
2022-08-11T13:05:53.352Z,1.43
2022-08-11T13:08:20.640Z,1.77
2022-08-11T13:11:06.509Z,1.70
2022-08-11T13:13:54.541Z,1.70
2022-08-11T13:16:23.123Z,1.33
2022-08-11T13:18:51.041Z,1.43
2022-08-11T13:21:21.771Z,1.80
2022-08-11T13:23:59.403Z,1.33
2022-08-11T13:26:43.640Z,1.70
2022-08-11T13:29:20.076Z,1.50
2022-08-11T13:31:47.400Z,1.53
2022-08-11T13:34:16.845Z,1.50
2022-08-11T13:36:44.348Z,1.40
2022-08-11T13:39:11.515Z,1.30
2022-08-11T13:41:42.360Z,2.07
2022-08-11T13:44:12.554Z,1.53
2022-08-11T13:46:44.396Z,1.57
2022-08-11T13:49:11.767Z,1.63
2022-08-11T13:51:40.109Z,1.40
2022-08-11T13:54:10.347Z,1.40
2022-08-11T13:56:41.994Z,1.70
2022-08-11T13:59:09.481Z,1.93
2022-08-11T14:02:20.730Z,1.53
2022-08-11T14:04:37.355Z,1.70
2022-08-11T14:07:07.461Z,3.13
2022-08-11T14:09:45.292Z,1.67
2022-08-11T14:12:42.311Z,1.70
2022-08-11T14:15:20.251Z,1.90
2022-08-11T14:18:13.440Z,1.80
2022-08-11T14:21:01.271Z,1.90
2022-08-11T14:23:31.868Z,1.97
2022-08-11T14:26:17.134Z,1.20
2022-08-11T14:28:45.347Z,0.97
2022-08-11T14:31:14.941Z,2.67
2022-08-11T14:33:58.901Z,2.20
2022-08-11T14:36:31.342Z,1.80
2022-08-11T14:38:58.669Z,2.40
2022-08-11T14:42:09.928Z,3.77
2022-08-11T14:44:53.938Z,1.67
2022-08-11T14:47:24.035Z,1.87
2022-08-11T14:49:58.273Z,2.43
2022-08-11T14:52:37.955Z,2.77
2022-08-11T14:55:25.650Z,2.20
2022-08-11T14:57:56.709Z,2.20
2022-08-11T15:00:24.550Z,2.07
2022-08-11T15:03:11.528Z,2.20
2022-08-11T15:05:56.494Z,2.13
2022-08-11T15:08:51.780Z,1.80
2022-08-11T15:11:38.461Z,1.60
2022-08-11T15:14:07.436Z,2.20
2022-08-11T15:16:54.171Z,2.40
2022-08-11T15:19:21.588Z,2.17
2022-08-11T15:22:08.834Z,1.70
2022-08-11T15:24:36.833Z,2.27
2022-08-11T15:27:24.712Z,1.90
2022-08-11T15:30:10.643Z,2.00
2022-08-11T15:33:07.967Z,2.03
2022-08-11T15:35:55.580Z,1.93
2022-08-11T15:38:23.527Z,1.60
2022-08-11T15:41:09.732Z,1.87
2022-08-11T15:44:03.059Z,2.13
2022-08-11T15:46:32.269Z,1.70
2022-08-11T15:49:03.199Z,1.93
2022-08-11T15:51:37.164Z,1.37
2022-08-11T15:54:09.501Z,1.60
2022-08-11T15:56:39.232Z,2.03
2022-08-11T15:59:41.001Z,1.83
2022-08-11T16:02:31.071Z,1.87
2022-08-11T16:05:00.245Z,2.00
2022-08-11T16:07:31.242Z,1.93
2022-08-11T16:10:21.714Z,3.20
2022-08-11T16:13:03.921Z,2.20
2022-08-11T16:15:57.338Z,1.87
2022-08-11T16:18:40.736Z,1.90
2022-08-11T16:21:33.716Z,1.60
2022-08-11T16:24:02.711Z,2.23
2022-08-11T16:27:11.153Z,1.83
2022-08-11T16:29:17.020Z,1.93
2022-08-11T16:32:03.981Z,2.40
2022-08-11T16:34:50.301Z,1.80
2022-08-11T16:37:36.709Z,1.73
2022-08-11T16:40:04.765Z,2.07
2022-08-11T16:43:08.792Z,1.77
2022-08-11T16:45:57.522Z,2.10
2022-08-11T16:48:36.595Z,2.87
2022-08-11T16:51:11.970Z,2.90
2022-08-11T16:54:00.090Z,2.10
2022-08-11T16:56:42.270Z,2.03
2022-08-11T16:59:18.184Z,2.40
2022-08-11T17:01:55.101Z,2.03
2022-08-11T17:04:50.578Z,1.53
2022-08-11T17:07:38.950Z,2.07
2022-08-11T17:10:52.046Z,1.80
2022-08-11T17:13:27.060Z,2.10
2022-08-11T17:16:13.195Z,2.00
2022-08-11T17:18:44.776Z,1.43
2022-08-11T17:21:26.480Z,1.50
2022-08-11T17:23:56.682Z,2.20
2022-08-11T17:26:26.088Z,2.03
2022-08-11T17:28:59.784Z,2.07
2022-08-11T17:31:46.358Z,2.00
2022-08-11T17:34:32.038Z,1.50
2022-08-11T17:37:00.315Z,1.90
2022-08-11T17:39:30.536Z,2.20
2022-08-11T17:42:16.407Z,2.20
2022-08-11T17:45:03.459Z,2.00
2022-08-11T17:47:49.856Z,1.87
2022-08-11T17:50:18.370Z,2.00
2022-08-11T17:53:04.490Z,1.80
2022-08-11T17:55:53.412Z,1.77
2022-08-11T17:58:40.144Z,2.10
2022-08-11T18:01:09.193Z,2.10
2022-08-11T18:03:40.014Z,2.03
2022-08-11T18:06:12.202Z,1.83
2022-08-11T18:09:02.579Z,2.20
2022-08-11T18:12:10.798Z,1.90
2022-08-11T18:14:57.121Z,2.30
2022-08-11T18:17:42.472Z,2.20
2022-08-11T18:20:28.323Z,2.30
2022-08-11T18:23:14.582Z,2.00
2022-08-11T18:26:03.009Z,2.00
2022-08-11T18:29:06.960Z,2.20
2022-08-11T18:31:54.521Z,2.77
2022-08-11T18:34:47.215Z,1.73
2022-08-11T18:37:38.177Z,2.23
2022-08-11T18:40:30.254Z,1.80
2022-08-11T18:43:18.421Z,1.90
2022-08-11T18:46:06.660Z,1.57
2022-08-11T18:48:56.223Z,1.80
2022-08-11T18:51:43.187Z,1.70
2022-08-11T18:54:30.455Z,1.80
2022-08-11T18:57:19.821Z,2.20
2022-08-11T19:00:06.806Z,2.30
2022-08-11T19:02:54.720Z,1.83
2022-08-11T19:06:05.859Z,2.47
2022-08-11T19:08:49.789Z,1.10
2022-08-11T19:11:42.802Z,1.50
2022-08-11T19:14:33.591Z,1.10
2022-08-11T19:17:43.971Z,1.50
2022-08-11T19:20:30.631Z,2.20
2022-08-11T19:23:16.219Z,1.87
2022-08-11T19:26:06.194Z,1.47
2022-08-11T19:28:53.703Z,1.83
2022-08-11T19:31:44.330Z,1.50
2022-08-11T19:34:32.623Z,1.47
2022-08-11T19:37:23.512Z,1.20
2022-08-11T19:40:11.381Z,1.60
2022-08-11T19:42:58.310Z,1.60
2022-08-11T19:45:45.807Z,1.47
2022-08-11T19:48:40.221Z,1.83
2022-08-11T19:51:28.006Z,2.30
2022-08-11T19:54:14.554Z,2.10
2022-08-11T19:57:01.479Z,1.60
2022-08-11T19:59:47.074Z,1.53
2022-08-11T20:02:32.472Z,1.50
2022-08-11T20:05:17.974Z,1.97
2022-08-11T20:08:04.902Z,2.03
2022-08-11T20:10:52.928Z,1.57
2022-08-11T20:13:41.607Z,1.57
2022-08-11T20:16:30.270Z,1.70
2022-08-11T20:19:16.414Z,1.70
2022-08-11T20:22:05.952Z,2.53
2022-08-11T20:24:54.873Z,1.90
2022-08-11T20:27:42.511Z,2.10
2022-08-11T20:30:28.600Z,4.10
2022-08-11T20:33:14.161Z,2.00
2022-08-11T20:35:59.461Z,2.40
2022-08-11T20:38:48.763Z,2.10
2022-08-11T20:41:58.159Z,2.23
2022-08-11T20:44:40.242Z,2.00
2022-08-11T20:47:26.972Z,1.77
2022-08-11T20:50:17.840Z,1.77
2022-08-11T20:53:06.833Z,1.90
2022-08-11T20:55:53.733Z,1.97
2022-08-11T21:01:46.044Z,1.57
2022-08-11T21:04:32.509Z,1.80
2022-08-11T21:07:28.006Z,1.50
2022-08-11T21:10:23.228Z,2.10
2022-08-11T21:13:25.065Z,1.67
2022-08-11T21:16:23.360Z,1.23
2022-08-11T21:19:14.576Z,1.73
2022-08-11T21:22:00.023Z,1.80
2022-08-11T21:24:48.090Z,1.90
2022-08-11T21:27:35.319Z,1.90
2022-08-11T21:30:21.532Z,2.07
2022-08-11T21:33:07.268Z,1.90
2022-08-11T21:35:52.732Z,2.23
2022-08-11T21:38:37.946Z,2.27
2022-08-11T21:41:24.142Z,2.00
2022-08-11T21:44:09.959Z,2.10
2022-08-11T21:46:56.683Z,2.07
2022-08-11T21:49:42.161Z,2.33
2022-08-11T21:52:27.938Z,2.23
2022-08-11T21:55:13.651Z,1.67
2022-08-11T21:57:59.287Z,1.93
2022-08-11T22:00:45.289Z,1.60
2022-08-11T22:03:32.628Z,1.70
2022-08-11T22:06:35.766Z,2.10
2022-08-11T22:09:21.623Z,2.17
2022-08-11T22:12:34.082Z,1.20
2022-08-11T22:15:12.583Z,2.30
2022-08-11T22:17:58.254Z,1.60
2022-08-11T22:20:45.233Z,2.40
2022-08-11T22:23:36.202Z,1.87
2022-08-11T22:26:23.385Z,2.33
2022-08-11T22:29:10.092Z,1.93
2022-08-11T22:31:57.118Z,1.83
2022-08-11T22:34:53.165Z,2.00
2022-08-11T22:37:40.630Z,1.70
2022-08-11T22:40:27.808Z,1.63
2022-08-11T22:43:13.109Z,1.50
2022-08-11T22:45:58.312Z,1.50
2022-08-11T22:48:45.037Z,2.10
2022-08-11T22:51:31.926Z,1.50
2022-08-11T22:54:21.659Z,1.63
2022-08-11T22:57:07.865Z,1.90
2022-08-11T22:59:55.100Z,1.67
2022-08-11T23:02:40.862Z,1.90
2022-08-11T23:05:27.128Z,1.73
2022-08-11T23:08:13.813Z,2.03
2022-08-11T23:10:59.816Z,1.80
2022-08-11T23:13:45.417Z,1.80
2022-08-11T23:16:30.738Z,1.30
2022-08-11T23:20:00.273Z,1.90
2022-08-11T23:22:22.077Z,2.00
2022-08-11T23:25:08.041Z,1.60
2022-08-11T23:28:03.431Z,2.10
2022-08-11T23:30:49.045Z,1.60
2022-08-11T23:33:36.036Z,1.47
2022-08-11T23:36:36.673Z,1.40
2022-08-11T23:39:26.502Z,1.60
2022-08-11T23:42:11.674Z,1.60
2022-08-11T23:44:57.062Z,1.83
2022-08-11T23:47:50.663Z,2.23
2022-08-11T23:50:36.819Z,1.40
2022-08-11T23:53:22.064Z,2.23
2022-08-11T23:56:07.295Z,1.27
2022-08-11T23:58:53.492Z,1.60
